Time;durP1;ratioP1;P1;durP2;ratioP2;P2;SDS_P1;SDS_P2;PMS_P1;PMS_P2;Temp;Humidity;BMP_temperature;BMP_pressure;BME280_temperature;BME280_humidity;BME280_pressure;Samples;Min_cycle;Max_cycle;Signal;HPM_P1;HPM_P2
2024/02/19 00:03:09;;;;;;;3.40;1.45;;;;;;;9.47;66.54;100689.03;10476690;28;20040;-64
2024/02/19 00:08:11;;;;;;;4.70;1.80;;;;;;;9.41;66.43;100689.31;10476269;28;20878;-64
2024/02/19 00:13:13;;;;;;;3.17;1.58;;;;;;;9.40;66.35;100680.63;10474669;28;20084;-64
2024/02/19 00:18:16;;;;;;;4.57;1.58;;;;;;;9.40;66.30;100675.38;10476909;28;20051;-64
2024/02/19 00:23:18;;;;;;;3.55;1.83;;;;;;;9.32;66.32;100679.28;10475842;28;20121;-64
2024/02/19 00:28:20;;;;;;;6.00;2.25;;;;;;;9.19;66.38;100680.69;10473838;28;20040;-64
2024/02/19 00:33:24;;;;;;;9.93;2.70;;;;;;;9.14;66.53;100673.03;10475176;28;20299;-64
2024/02/19 00:38:27;;;;;;;8.10;2.58;;;;;;;9.10;66.66;100676.69;10475193;28;20063;-64
2024/02/19 00:43:30;;;;;;;3.45;2.17;;;;;;;9.14;66.51;100688.69;10454645;28;20040;-65
2024/02/19 00:48:32;;;;;;;2.40;1.83;;;;;;;9.12;66.81;100695.75;10473883;28;20060;-64
2024/02/19 00:53:37;;;;;;;2.35;1.20;;;;;;;9.24;66.70;100694.41;10474614;28;20409;-64
2024/02/19 00:58:39;;;;;;;2.80;1.15;;;;;;;9.27;66.47;100705.56;10475020;28;20040;-64
2024/02/19 01:03:44;;;;;;;5.68;1.55;;;;;;;9.33;66.14;100705.31;10474610;28;20033;-65
2024/02/19 01:08:46;;;;;;;3.10;1.30;;;;;;;9.21;66.67;100702.34;10475602;28;20070;-64
2024/02/19 01:13:48;;;;;;;4.50;1.90;;;;;;;9.18;66.68;100708.53;10473452;28;20048;-65
2024/02/19 01:18:51;;;;;;;7.45;1.48;;;;;;;9.24;66.82;100705.66;10473807;28;20143;-64
2024/02/19 01:23:53;;;;;;;5.10;1.67;;;;;;;9.18;67.32;100715.53;10469982;28;20055;-65
2024/02/19 01:28:55;;;;;;;1.20;0.98;;;;;;;9.14;67.54;100724.38;10471947;28;20405;-65
2024/02/19 01:33:57;;;;;;;2.40;1.23;;;;;;;8.98;68.19;100720.72;10472262;28;20049;-65
2024/02/19 01:38:59;;;;;;;3.42;1.42;;;;;;;9.02;68.37;100730.09;10473684;28;20052;-65
2024/02/19 01:44:02;;;;;;;0.77;0.70;;;;;;;8.93;68.38;100720.06;10474048;28;20044;-64
2024/02/19 01:49:04;;;;;;;1.80;0.88;;;;;;;8.87;68.66;100731.59;10470731;28;20136;-65
2024/02/19 01:54:08;;;;;;;1.27;0.75;;;;;;;8.92;68.46;100727.03;10472087;28;20094;-65
2024/02/19 01:59:12;;;;;;;0.60;0.57;;;;;;;8.90;68.33;100734.06;10477031;28;20052;-65
2024/02/19 02:04:16;;;;;;;1.90;0.52;;;;;;;9.02;68.17;100737.94;10480860;28;20087;-65
2024/02/19 02:09:18;;;;;;;1.38;0.77;;;;;;;8.97;68.13;100738.13;10481029;28;20078;-64
2024/02/19 02:14:20;;;;;;;0.50;0.50;;;;;;;8.96;67.92;100730.34;10480252;28;20523;-66
2024/02/19 02:19:22;;;;;;;0.82;0.50;;;;;;;9.04;67.57;100746.53;10480346;28;20075;-65
2024/02/19 02:24:24;;;;;;;0.60;0.60;;;;;;;9.05;67.59;100749.13;10479852;28;20056;-66
2024/02/19 02:29:26;;;;;;;0.98;0.57;;;;;;;9.11;67.29;100748.00;10479772;28;20044;-66
2024/02/19 02:34:28;;;;;;;0.68;0.43;;;;;;;9.18;67.07;100763.34;10478135;28;20037;-65
2024/02/19 02:39:31;;;;;;;1.33;0.60;;;;;;;9.13;66.84;100765.31;10478239;28;20052;-66
2024/02/19 02:44:34;;;;;;;1.00;0.85;;;;;;;9.08;66.43;100766.38;10479100;28;20850;-65
2024/02/19 02:49:36;;;;;;;1.20;0.90;;;;;;;8.94;66.46;100780.00;10477718;28;20137;-65
2024/02/19 02:54:38;;;;;;;0.80;0.77;;;;;;;8.97;65.76;100782.50;10474135;28;20159;-65
2024/02/19 02:59:43;;;;;;;1.38;0.70;;;;;;;8.96;65.26;100780.78;10469606;28;20048;-64
2024/02/19 03:04:45;;;;;;;3.60;1.05;;;;;;;8.96;65.74;100796.44;10479216;28;20555;-66
2024/02/19 03:09:47;;;;;;;2.25;1.05;;;;;;;8.95;65.78;100789.53;10477327;28;20047;-65
2024/02/19 03:14:49;;;;;;;1.35;1.00;;;;;;;9.02;65.68;100804.00;10477517;28;20182;-66
2024/02/19 03:19:51;;;;;;;1.45;0.75;;;;;;;9.03;65.54;100808.34;10478433;28;20143;-65
2024/02/19 03:24:53;;;;;;;3.28;0.90;;;;;;;8.84;65.95;100807.34;10476775;28;20052;-64
2024/02/19 03:29:55;;;;;;;0.95;0.68;;;;;;;8.86;65.75;100815.97;10478178;28;20044;-65
2024/02/19 03:34:57;;;;;;;2.03;1.00;;;;;;;8.80;65.87;100816.19;10478304;28;20063;-65
2024/02/19 03:39:59;;;;;;;1.73;0.90;;;;;;;8.88;65.70;100832.41;10478138;28;20056;-64
2024/02/19 03:45:03;;;;;;;1.40;0.90;;;;;;;8.81;65.71;100836.16;10476644;28;20052;-65
2024/02/19 03:50:05;;;;;;;0.60;0.60;;;;;;;8.82;65.76;100863.94;10475344;28;20051;-64
2024/02/19 03:55:08;;;;;;;4.45;1.10;;;;;;;8.59;64.65;100866.53;10477300;28;20382;-65
2024/02/19 04:00:12;;;;;;;1.95;1.17;;;;;;;8.44;64.58;100887.97;10472525;28;20526;-64
2024/02/19 04:05:14;;;;;;;1.92;0.85;;;;;;;8.41;64.65;100882.84;10476990;28;20055;-65
2024/02/19 04:10:16;;;;;;;4.85;1.10;;;;;;;8.50;64.17;100887.75;10473409;28;20167;-63
2024/02/19 04:15:18;;;;;;;6.95;1.15;;;;;;;8.53;64.24;100893.69;10473550;28;20131;-65
2024/02/19 04:20:20;;;;;;;2.60;1.40;;;;;;;8.56;64.11;100892.75;10473417;28;20086;-64
2024/02/19 04:25:23;;;;;;;2.90;1.30;;;;;;;8.48;64.02;100905.19;10475161;28;20052;-65
2024/02/19 04:30:25;;;;;;;2.55;1.42;;;;;;;8.47;64.09;100913.91;10475997;28;20048;-64
2024/02/19 04:35:27;;;;;;;6.65;1.20;;;;;;;8.54;63.53;100920.63;10473311;28;20067;-64
2024/02/19 04:40:29;;;;;;;2.00;1.08;;;;;;;8.44;63.58;100927.94;10474490;28;20045;-65
2024/02/19 04:45:31;;;;;;;2.88;1.13;;;;;;;8.53;63.47;100926.72;10475207;28;20068;-63
2024/02/19 04:50:33;;;;;;;2.55;1.20;;;;;;;8.53;63.26;100929.34;10470514;28;20131;-64
2024/02/19 04:55:35;;;;;;;5.85;2.08;;;;;;;8.46;63.22;100933.09;10474631;28;20048;-64
2024/02/19 05:00:40;;;;;;;1.83;0.82;;;;;;;8.49;63.00;100936.44;10475629;28;20182;-65
2024/02/19 05:05:42;;;;;;;2.13;1.10;;;;;;;8.35;62.68;100937.81;10474569;28;20048;-64
2024/02/19 05:10:44;;;;;;;4.90;1.67;;;;;;;8.42;63.15;100931.50;10474511;28;20119;-64
2024/02/19 05:15:46;;;;;;;12.02;1.45;;;;;;;8.34;63.53;100933.50;10469347;28;20409;-64
2024/02/19 05:20:48;;;;;;;6.18;2.10;;;;;;;8.41;63.44;100934.97;10473875;28;20040;-64
2024/02/19 05:25:50;;;;;;;5.88;2.30;;;;;;;8.20;64.36;100933.13;10474013;28;20040;-64
2024/02/19 05:30:52;;;;;;;4.28;1.55;;;;;;;8.24;64.57;100942.56;10474223;28;20087;-65
2024/02/19 05:35:55;;;;;;;2.95;1.48;;;;;;;8.10;64.86;100936.94;10474536;28;20070;-64
2024/02/19 05:40:57;;;;;;;2.83;1.25;;;;;;;8.16;64.80;100934.16;10489452;28;20839;-65
2024/02/19 05:45:59;;;;;;;4.68;1.52;;;;;;;7.99;65.01;100945.97;10474687;28;20102;-64
2024/02/19 05:51:03;;;;;;;2.53;1.30;;;;;;;7.98;65.41;100948.59;10473991;28;20059;-65
2024/02/19 05:56:08;;;;;;;1.98;1.35;;;;;;;8.02;65.55;100955.41;10473884;28;20157;-64
2024/02/19 06:01:11;;;;;;;3.47;1.40;;;;;;;8.11;65.50;100960.34;10473181;28;20075;-64
2024/02/19 06:06:13;;;;;;;1.45;1.10;;;;;;;8.07;65.79;100966.53;10472461;28;20562;-64
2024/02/19 06:11:15;;;;;;;3.00;1.25;;;;;;;8.18;65.49;100963.59;10473203;28;20131;-65
2024/02/19 06:16:17;;;;;;;2.35;1.48;;;;;;;8.25;65.41;100970.31;10506323;28;20136;-64
2024/02/19 06:21:20;;;;;;;3.80;2.10;;;;;;;8.28;65.12;100975.44;10473038;28;20049;-64
2024/02/19 06:26:22;;;;;;;4.53;1.20;;;;;;;8.25;65.10;100980.72;10474306;28;20049;-64
2024/02/19 06:31:27;;;;;;;1.88;1.50;;;;;;;8.20;65.46;101001.72;10471528;28;20143;-65
2024/02/19 06:36:29;;;;;;;3.22;1.13;;;;;;;8.24;65.31;100989.47;10472773;28;20537;-64
2024/02/19 06:41:31;;;;;;;2.47;1.55;;;;;;;8.26;65.37;100991.09;10472381;28;20056;-65
2024/02/19 06:46:33;;;;;;;1.83;1.05;;;;;;;8.19;65.46;101001.78;10473504;28;20632;-64
2024/02/19 06:51:36;;;;;;;4.22;1.67;;;;;;;8.30;65.30;100997.94;10478967;28;20444;-65
2024/02/19 06:56:38;;;;;;;4.05;1.40;;;;;;;8.35;65.08;101005.56;10476061;28;20052;-65
2024/02/19 07:01:40;;;;;;;1.10;0.85;;;;;;;8.35;65.08;101010.78;10479307;28;20139;-65
2024/02/19 07:06:42;;;;;;;1.48;1.00;;;;;;;8.32;65.08;101029.16;10476494;28;20051;-65
2024/02/19 07:11:44;;;;;;;2.20;1.23;;;;;;;8.37;65.10;101025.47;10478414;28;20431;-64
2024/02/19 07:16:46;;;;;;;4.43;1.60;;;;;;;8.18;65.38;101036.56;10479335;28;20129;-65
2024/02/19 07:21:48;;;;;;;2.03;1.45;;;;;;;8.31;65.18;101043.06;10476197;28;20041;-64
2024/02/19 07:26:50;;;;;;;1.95;1.20;;;;;;;8.47;65.07;101046.88;10476876;28;20139;-64
2024/02/19 07:31:52;;;;;;;3.60;1.25;;;;;;;8.52;64.93;101058.88;10475921;28;20099;-65
2024/02/19 07:36:54;;;;;;;3.53;1.08;;;;;;;8.52;65.01;101058.88;10474478;28;20056;-65
2024/02/19 07:41:56;;;;;;;2.25;1.42;;;;;;;8.56;65.01;101049.19;10474549;28;20054;-64
2024/02/19 07:46:58;;;;;;;1.48;0.98;;;;;;;8.79;64.84;101054.47;10476460;28;20047;-64
2024/02/19 07:52:04;;;;;;;1.20;0.85;;;;;;;8.95;64.47;101052.19;10477352;28;20550;-64
2024/02/19 07:57:07;;;;;;;3.20;1.25;;;;;;;8.92;64.52;101055.72;10474677;28;20080;-64
2024/02/19 08:02:10;;;;;;;1.15;0.95;;;;;;;8.92;64.43;101068.78;10472851;28;20503;-66
2024/02/19 08:07:12;;;;;;;1.00;0.88;;;;;;;9.20;64.13;101066.88;10475152;28;20518;-65
2024/02/19 08:12:15;;;;;;;3.28;1.08;;;;;;;9.25;64.06;101067.59;10474028;28;20140;-66
2024/02/19 08:17:18;;;;;;;4.05;1.20;;;;;;;9.21;64.02;101076.44;10474545;28;20105;-66
2024/02/19 08:22:20;;;;;;;1.83;0.95;;;;;;;9.41;63.51;101073.09;10477477;28;20055;-58
2024/02/19 08:27:22;;;;;;;3.30;1.10;;;;;;;9.19;63.96;101078.25;10471493;28;20102;-56
2024/02/19 08:32:24;;;;;;;3.30;1.02;;;;;;;8.94;64.49;101069.56;10471681;28;20049;-57
2024/02/19 08:37:26;;;;;;;5.43;1.02;;;;;;;8.97;64.20;101063.41;10471217;28;20056;-57
2024/02/19 08:42:29;;;;;;;4.03;1.10;;;;;;;9.17;63.89;101079.22;10467519;28;20052;-57
2024/02/19 08:47:32;;;;;;;2.22;0.90;;;;;;;9.61;62.72;101076.66;10467093;28;20147;-57
2024/02/19 08:52:35;;;;;;;1.42;0.80;;;;;;;10.19;61.76;101066.59;10483239;28;20056;-57
2024/02/19 08:57:37;;;;;;;2.55;1.13;;;;;;;10.39;61.49;101077.09;10466817;28;20053;-57
2024/02/19 09:02:42;;;;;;;1.17;0.80;;;;;;;10.31;61.30;101068.72;10466312;28;20504;-57
2024/02/19 09:07:44;;;;;;;7.50;1.20;;;;;;;10.59;61.02;101061.44;10470147;28;20314;-57
2024/02/19 09:12:46;;;;;;;4.88;1.00;;;;;;;10.72;60.81;101062.63;10463584;28;20041;-56
2024/02/19 09:17:48;;;;;;;2.35;1.17;;;;;;;10.94;60.70;101057.31;10470292;28;20117;-57
2024/02/19 09:22:51;;;;;;;7.03;1.27;;;;;;;11.01;60.00;101050.91;10470357;28;20040;-58
2024/02/19 09:27:53;;;;;;;2.08;0.80;;;;;;;10.81;59.55;101058.75;10449825;28;20048;-58
2024/02/19 09:32:55;;;;;;;3.22;0.98;;;;;;;11.51;59.16;101046.91;10465655;28;20722;-58
2024/02/19 09:37:57;;;;;;;2.20;0.80;;;;;;;11.64;58.41;101047.19;10468296;28;20052;-58
2024/02/19 09:43:00;;;;;;;0.45;0.40;;;;;;;11.51;57.52;101054.75;10465034;28;20688;-56
2024/02/19 09:48:05;;;;;;;3.55;1.05;;;;;;;11.44;58.18;101047.25;10467861;28;20530;-57
2024/02/19 10:10:33;;;;;;;2.38;1.08;;;;;;;9.90;60.93;101054.69;10566759;27;20296;-56
2024/02/19 10:15:36;;;;;;;1.55;0.80;;;;;;;10.61;59.84;101043.91;10531332;27;20040;-55
2024/02/19 10:20:44;;;;;;;4.03;1.25;;;;;;;10.72;58.97;101041.69;10549742;27;20043;-55
2024/02/19 10:25:47;;;;;;;2.08;0.90;;;;;;;10.86;59.20;101031.47;10547185;27;20089;-56
2024/02/19 10:30:50;;;;;;;2.80;0.95;;;;;;;11.41;58.05;101029.91;10551744;27;20044;-56
2024/02/19 10:35:53;;;;;;;2.83;1.30;;;;;;;11.69;57.65;101032.09;10548384;27;20416;-56
2024/02/19 10:40:55;;;;;;;2.95;1.05;;;;;;;11.83;56.59;101009.53;10552605;27;20048;-56
2024/02/19 10:51:59;;;;;;;1.15;0.80;;;;;;;11.74;56.91;101022.25;10547893;27;20136;-56
2024/02/19 10:57:08;;;;;;;1.73;1.25;;;;;;;11.76;55.39;101007.31;10541671;28;20529;-57
2024/02/19 11:02:11;;;;;;;1.80;0.90;;;;;;;11.92;56.21;101003.03;10541574;28;20039;-57
2024/02/19 11:07:15;;;;;;;8.95;1.13;;;;;;;12.08;55.51;101006.59;10561860;27;20052;-56
2024/02/19 11:12:19;;;;;;;4.20;1.40;;;;;;;12.16;55.62;101007.06;10545227;28;20419;-56
2024/02/19 11:17:25;;;;;;;1.77;0.93;;;;;;;12.31;53.15;100998.47;10546979;28;20134;-56
2024/02/19 11:22:30;;;;;;;3.10;0.90;;;;;;;12.21;53.83;100993.72;10546461;28;20040;-55
2024/02/19 11:27:32;;;;;;;3.03;1.00;;;;;;;12.37;53.55;100985.06;10527452;28;20051;-54
2024/02/19 11:32:36;;;;;;;5.05;1.55;;;;;;;12.39;53.17;100975.34;10545011;28;20130;-56
2024/02/19 11:37:38;;;;;;;3.67;1.75;;;;;;;12.38;52.01;100978.00;10545363;28;20056;-55
2024/02/19 11:42:40;;;;;;;1.50;1.13;;;;;;;12.33;52.66;100985.28;10510670;28;20073;-56
2024/02/19 11:47:43;;;;;;;6.15;1.55;;;;;;;12.26;52.02;100975.97;10543102;28;20056;-55
2024/02/19 11:52:45;;;;;;;6.07;1.60;;;;;;;12.16;52.56;100972.97;10543356;28;20040;-54
2024/02/19 11:57:48;;;;;;;5.00;1.35;;;;;;;12.30;53.68;100974.94;10544895;28;20092;-56
2024/02/19 12:02:53;;;;;;;2.40;1.40;;;;;;;12.30;53.13;100954.81;10517872;28;20542;-54
2024/02/19 12:07:56;;;;;;;3.35;1.27;;;;;;;12.39;53.09;100953.50;10491449;28;20052;-56
2024/02/19 12:12:59;;;;;;;4.03;1.00;;;;;;;12.38;53.15;100938.66;10508788;28;20148;-55
2024/02/19 12:18:01;;;;;;;2.95;1.20;;;;;;;12.30;53.01;100932.97;10514139;28;20234;-55
2024/02/19 12:23:03;;;;;;;3.00;1.30;;;;;;;12.46;52.97;100924.22;10514862;28;20040;-55
2024/02/19 12:28:05;;;;;;;2.45;1.25;;;;;;;12.56;52.83;100917.56;10497370;28;20178;-56
2024/02/19 12:33:08;;;;;;;2.50;1.17;;;;;;;12.55;52.98;100892.28;10512942;28;20127;-56
2024/02/19 12:38:10;;;;;;;1.35;1.00;;;;;;;12.69;52.97;100889.78;10511344;28;20703;-55
2024/02/19 12:43:13;;;;;;;4.35;1.38;;;;;;;12.56;53.15;100875.59;10507263;28;20039;-56
2024/02/19 12:48:15;;;;;;;2.78;1.50;;;;;;;12.38;52.92;100879.19;10477300;28;20147;-56
2024/02/19 12:53:18;;;;;;;3.72;1.88;;;;;;;12.25;52.97;100874.63;10515342;28;20052;-57
2024/02/19 12:58:20;;;;;;;4.90;1.40;;;;;;;12.25;52.77;100874.63;10513035;28;20821;-54
2024/02/19 13:03:24;;;;;;;1.48;1.02;;;;;;;12.49;52.88;100871.63;10496501;28;20458;-55
2024/02/19 13:08:28;;;;;;;2.75;1.20;;;;;;;12.26;52.54;100871.06;10512323;28;20055;-57
2024/02/19 13:13:31;;;;;;;3.90;1.40;;;;;;;11.97;53.28;100878.66;10512600;28;20131;-55
2024/02/19 13:18:36;;;;;;;3.00;1.30;;;;;;;11.90;53.42;100869.41;10515452;28;20055;-57
2024/02/19 13:23:38;;;;;;;2.20;1.10;;;;;;;11.83;53.15;100859.28;10514099;28;20586;-57
2024/02/19 13:28:42;;;;;;;4.05;1.45;;;;;;;11.41;53.74;100870.13;10514801;28;20125;-58
2024/02/19 13:33:44;;;;;;;5.53;1.63;;;;;;;11.82;53.42;100865.47;10507958;28;20086;-57
2024/02/19 13:38:47;;;;;;;3.10;1.38;;;;;;;11.76;53.37;100858.78;10500414;28;20044;-57
2024/02/19 13:43:49;;;;;;;4.13;2.10;;;;;;;12.08;53.50;100844.88;10511818;28;20205;-57
2024/02/19 13:49:06;;;;;;;1.73;0.98;;;;;;;12.31;52.46;100848.97;10506705;28;20063;-57
2024/02/19 13:54:09;;;;;;;3.72;1.63;;;;;;;12.22;52.85;100845.94;10509477;28;20044;-59
2024/02/19 13:59:13;;;;;;;3.55;1.50;;;;;;;11.98;53.48;100846.28;10493264;28;20143;-58
2024/02/19 14:04:15;;;;;;;4.95;2.40;;;;;;;12.03;54.03;100843.41;10478523;28;20458;-58
2024/02/19 14:09:18;;;;;;;6.90;1.85;;;;;;;11.92;54.21;100851.84;10516202;28;20048;-58
2024/02/19 14:14:21;;;;;;;2.85;1.30;;;;;;;11.51;56.08;100846.94;10511113;28;20650;-55
2024/02/19 14:19:23;;;;;;;4.30;1.80;;;;;;;11.79;55.73;100844.66;10511212;28;20126;-57
2024/02/19 14:24:27;;;;;;;5.97;2.72;;;;;;;11.71;55.82;100839.81;10505256;28;20192;-55
2024/02/19 14:29:30;;;;;;;3.58;1.73;;;;;;;11.69;56.28;100833.78;10508202;28;20052;-57
2024/02/19 14:34:32;;;;;;;2.53;1.38;;;;;;;11.72;56.17;100827.56;10491765;28;20089;-57
2024/02/19 14:39:35;;;;;;;3.33;1.30;;;;;;;11.71;56.21;100820.59;10509447;28;20039;-54
2024/02/19 14:44:37;;;;;;;2.28;1.40;;;;;;;11.66;56.53;100812.13;10508582;28;20137;-57
2024/02/19 14:49:40;;;;;;;2.58;1.27;;;;;;;11.59;56.47;100821.22;10487248;28;20903;-57
2024/02/19 14:54:42;;;;;;;8.60;2.13;;;;;;;11.46;56.87;100820.16;10508464;28;20119;-58
2024/02/19 14:59:44;;;;;;;2.35;1.20;;;;;;;11.57;56.75;100825.69;10502766;28;20048;-58
2024/02/19 15:04:46;;;;;;;4.57;1.65;;;;;;;11.53;56.81;100811.91;10481603;28;20362;-57
2024/02/19 15:09:48;;;;;;;4.78;1.88;;;;;;;11.58;56.86;100814.28;10476902;28;20048;-57
2024/02/19 15:14:50;;;;;;;4.60;1.30;;;;;;;11.62;56.78;100818.47;10511017;28;20181;-57
2024/02/19 15:19:52;;;;;;;2.30;1.38;;;;;;;11.50;56.69;100804.19;10512056;28;20059;-57
2024/02/19 15:24:55;;;;;;;2.92;1.77;;;;;;;11.40;56.80;100808.19;10491542;28;20054;-57
2024/02/19 15:29:58;;;;;;;2.60;1.52;;;;;;;11.50;56.80;100804.19;10511909;28;20048;-57
2024/02/19 15:35:04;;;;;;;2.65;1.30;;;;;;;11.63;56.83;100807.03;10515378;28;20048;-57
2024/02/19 15:40:08;;;;;;;4.20;1.52;;;;;;;11.75;56.71;100791.56;10520676;28;20044;-57
2024/02/19 15:45:11;;;;;;;1.75;0.95;;;;;;;11.68;56.61;100792.78;10522807;28;20048;-55
2024/02/19 15:50:14;;;;;;;3.38;1.60;;;;;;;11.64;56.79;100785.16;10522581;28;20055;-56
2024/02/19 15:55:16;;;;;;;2.42;1.55;;;;;;;11.48;56.83;100782.44;10499243;28;20061;-56
2024/02/19 16:00:18;;;;;;;7.80;1.77;;;;;;;11.29;57.58;100779.88;10503774;28;20393;-58
2024/02/19 16:05:20;;;;;;;3.90;1.50;;;;;;;11.28;57.72;100772.13;10521774;28;20131;-57
2024/02/19 16:10:22;;;;;;;2.22;1.35;;;;;;;11.11;58.00;100775.56;10520983;28;20766;-56
2024/02/19 16:15:24;;;;;;;3.03;1.58;;;;;;;11.17;57.87;100771.81;10503041;28;20051;-58
2024/02/19 16:20:26;;;;;;;3.35;1.40;;;;;;;11.11;57.95;100764.25;10514449;28;20040;-55
2024/02/19 16:25:28;;;;;;;2.22;1.35;;;;;;;11.09;57.88;100766.09;10518934;28;20056;-56
2024/02/19 16:30:31;;;;;;;1.70;1.10;;;;;;;11.01;57.82;100760.38;10516268;28;20052;-56
2024/02/19 16:35:33;;;;;;;2.72;1.70;;;;;;;11.02;57.85;100762.91;10513177;28;20207;-55
2024/02/19 16:40:37;;;;;;;2.00;1.30;;;;;;;11.03;57.76;100761.97;10514169;28;20051;-57
2024/02/19 16:45:39;;;;;;;2.40;1.50;;;;;;;10.95;58.09;100753.63;10498146;28;20048;-56
2024/02/19 16:50:42;;;;;;;6.88;1.40;;;;;;;10.93;58.13;100760.72;10496112;28;20143;-54
2024/02/19 16:55:44;;;;;;;5.20;1.95;;;;;;;10.90;58.44;100758.25;10513357;28;20483;-57
2024/02/19 17:00:53;;;;;;;4.50;1.30;;;;;;;10.78;58.77;100756.22;10512710;28;20462;-57
2024/02/19 17:05:56;;;;;;;3.33;1.55;;;;;;;10.70;59.12;100766.22;10512462;28;20036;-57
2024/02/19 17:10:59;;;;;;;3.58;1.83;;;;;;;10.66;59.85;100775.13;10479053;28;20071;-55
2024/02/19 17:16:02;;;;;;;3.20;1.55;;;;;;;10.77;59.66;100788.53;10514274;28;20093;-55
2024/02/19 17:21:05;;;;;;;3.55;1.77;;;;;;;10.73;60.59;100792.22;10512972;28;20043;-56
2024/02/19 17:26:08;;;;;;;3.38;1.50;;;;;;;10.56;60.64;100797.41;10509990;28;20046;-57
2024/02/19 17:31:11;;;;;;;3.67;1.38;;;;;;;10.32;61.04;100798.47;10502876;28;20083;-55
2024/02/19 17:36:13;;;;;;;1.63;1.10;;;;;;;10.18;61.32;100785.19;10491465;28;20094;-57
2024/02/19 17:41:15;;;;;;;3.08;1.20;;;;;;;10.21;61.06;100782.44;10488521;28;20448;-56
2024/02/19 17:46:18;;;;;;;2.00;1.13;;;;;;;10.30;60.72;100784.63;10508059;28;20052;-60
2024/02/19 17:51:21;;;;;;;1.83;1.10;;;;;;;10.22;61.01;100792.81;10509930;28;20059;-61
2024/02/19 17:56:24;;;;;;;2.55;1.08;;;;;;;10.25;60.91;100787.47;10506850;28;20105;-61
2024/02/19 18:01:27;;;;;;;1.27;0.82;;;;;;;10.24;61.00;100790.13;10508559;28;20572;-61
2024/02/19 18:10:00;;;;;;;1.38;0.98;;;;;;;9.75;61.71;100801.06;10551904;27;20183;-59
2024/02/19 18:15:04;;;;;;;2.88;1.08;;;;;;;9.73;62.22;100808.94;10540801;28;20411;-61
2024/02/19 18:20:09;;;;;;;1.88;1.00;;;;;;;9.79;62.29;100807.84;10538279;28;20043;-61
2024/02/19 18:25:12;;;;;;;1.73;1.10;;;;;;;9.88;62.22;100802.22;10521099;28;20044;-60
2024/02/19 18:30:14;;;;;;;0.95;0.73;;;;;;;9.86;62.30;100799.66;10524129;28;20203;-61
2024/02/19 18:35:17;;;;;;;3.88;1.52;;;;;;;9.86;62.49;100796.19;10541929;28;20050;-60
2024/02/19 18:40:19;;;;;;;3.25;1.40;;;;;;;9.78;62.57;100806.97;10540005;28;20036;-61
2024/02/19 18:45:23;;;;;;;4.10;1.50;;;;;;;9.82;62.74;100792.03;10541116;28;20048;-60
2024/02/19 18:50:25;;;;;;;2.47;1.48;;;;;;;9.82;62.88;100799.84;10535397;28;20547;-61
2024/02/19 18:55:28;;;;;;;4.32;1.55;;;;;;;9.76;62.93;100802.72;10543115;28;20054;-60
2024/02/19 19:00:31;;;;;;;3.25;1.67;;;;;;;9.76;63.18;100816.66;10545150;28;20089;-61
2024/02/19 19:05:34;;;;;;;14.60;1.33;;;;;;;9.85;63.33;100812.81;10545171;28;20047;-61
2024/02/19 19:10:36;;;;;;;3.92;1.48;;;;;;;9.86;63.33;100806.66;10545973;28;20036;-61
2024/02/19 19:15:41;;;;;;;2.13;1.17;;;;;;;9.63;63.99;100802.38;10540960;28;20137;-60
2024/02/19 19:20:44;;;;;;;2.45;1.20;;;;;;;9.29;64.67;100796.84;10499807;28;20044;-60
2024/02/19 19:25:46;;;;;;;1.73;1.02;;;;;;;9.14;65.01;100813.09;10496906;28;20555;-61
2024/02/19 19:30:49;;;;;;;4.47;2.03;;;;;;;9.01;65.16;100804.94;10516278;28;20048;-60
2024/02/19 19:35:52;;;;;;;1.23;1.10;;;;;;;8.91;65.15;100794.91;10498848;28;20431;-60
2024/02/19 19:40:56;;;;;;;4.68;1.17;;;;;;;8.72;65.55;100793.03;10527515;27;20050;-61
2024/02/19 19:45:58;;;;;;;2.15;1.20;;;;;;;8.68;65.48;100796.66;10512198;28;20048;-61
2024/02/19 19:51:01;;;;;;;1.40;1.08;;;;;;;8.52;65.76;100798.16;10514833;28;20060;-60
2024/02/19 19:56:04;;;;;;;3.60;1.33;;;;;;;8.45;65.88;100808.84;10517096;28;20048;-60
2024/02/19 20:01:10;;;;;;;2.20;1.10;;;;;;;8.54;65.44;100798.09;10509646;28;20056;-60
2024/02/19 20:06:12;;;;;;;2.00;1.10;;;;;;;8.45;65.43;100801.88;10497291;28;20208;-60
2024/02/19 20:11:15;;;;;;;2.25;1.10;;;;;;;8.51;65.44;100806.00;10506655;28;20064;-60
2024/02/19 20:16:18;;;;;;;1.08;0.90;;;;;;;8.47;65.59;100809.63;10510209;28;20178;-59
2024/02/19 20:21:21;;;;;;;1.95;0.93;;;;;;;8.37;65.85;100814.34;10507801;28;20189;-59
2024/02/19 20:26:24;;;;;;;0.98;0.90;;;;;;;8.46;65.65;100814.03;10509599;28;20109;-59
2024/02/19 20:31:27;;;;;;;1.58;1.05;;;;;;;8.61;65.23;100816.03;10509903;28;20135;-59
2024/02/19 20:36:30;;;;;;;1.33;0.98;;;;;;;8.75;64.93;100818.16;10493678;28;20483;-59
2024/02/19 20:41:35;;;;;;;3.80;1.23;;;;;;;8.72;64.93;100826.06;10491824;28;20495;-62
2024/02/19 20:46:37;;;;;;;1.90;1.30;;;;;;;8.72;65.04;100832.16;10512832;28;20046;-60
2024/02/19 20:51:39;;;;;;;2.17;1.40;;;;;;;8.73;64.97;100833.84;10514467;28;20055;-61
2024/02/19 20:56:43;;;;;;;4.50;1.83;;;;;;;8.74;64.91;100835.53;10516061;28;20053;-59
2024/02/19 21:01:46;;;;;;;1.95;1.00;;;;;;;8.88;64.70;100839.38;10497972;28;20076;-59
2024/02/19 21:06:48;;;;;;;1.95;1.25;;;;;;;8.90;64.46;100837.56;10515645;28;20063;-59
2024/02/19 21:11:52;;;;;;;2.22;1.30;;;;;;;8.65;64.50;100830.66;10515690;28;20051;-60
2024/02/19 21:16:56;;;;;;;3.70;1.17;;;;;;;8.39;64.79;100830.78;10515616;28;20036;-59
2024/02/19 21:22:01;;;;;;;1.77;1.10;;;;;;;8.16;65.19;100845.56;10495279;28;20050;-59
2024/02/19 21:27:04;;;;;;;2.15;1.45;;;;;;;8.09;65.14;100846.63;10514751;28;20070;-60
2024/02/19 21:32:06;;;;;;;3.70;1.23;;;;;;;8.11;65.05;100850.06;10531121;27;20144;-59
2024/02/19 21:37:08;;;;;;;1.98;1.10;;;;;;;8.15;64.82;100856.88;10496917;28;20358;-60
2024/02/19 21:42:13;;;;;;;3.83;1.50;;;;;;;8.14;65.14;100852.59;10514592;28;20385;-59
2024/02/19 21:47:23;;;;;;;3.42;1.73;;;;;;;8.09;65.58;100854.44;10513306;28;20055;-59
2024/02/19 21:52:25;;;;;;;3.85;1.73;;;;;;;8.06;65.69;100849.34;10513292;28;20563;-59
2024/02/19 21:57:31;;;;;;;3.60;1.27;;;;;;;8.03;65.58;100845.09;10514048;28;20043;-59
2024/02/19 22:02:34;;;;;;;2.80;1.30;;;;;;;8.00;65.41;100840.84;10530370;27;20571;-59
2024/02/19 22:07:39;;;;;;;2.42;1.30;;;;;;;7.94;65.90;100858.44;10529462;28;20310;-59
2024/02/19 22:12:43;;;;;;;1.55;0.90;;;;;;;8.10;65.52;100862.22;10496754;28;20125;-59
2024/02/19 22:17:46;;;;;;;5.32;1.13;;;;;;;8.11;65.69;100857.88;10509009;28;20501;-59
2024/02/19 22:22:48;;;;;;;5.85;1.30;;;;;;;8.25;65.24;100861.72;10509451;28;20044;-59
2024/02/19 22:27:52;;;;;;;2.65;1.17;;;;;;;8.26;65.23;100871.22;10511219;28;20047;-59
2024/02/19 22:32:54;;;;;;;3.83;1.30;;;;;;;8.32;64.81;100878.84;10512904;28;20048;-59
2024/02/19 22:37:57;;;;;;;1.75;1.20;;;;;;;8.45;64.42;100876.63;10513848;28;20040;-59
2024/02/19 22:42:59;;;;;;;4.93;1.30;;;;;;;8.35;64.59;100872.66;10495730;28;20044;-60
2024/02/19 22:48:04;;;;;;;2.63;1.50;;;;;;;8.24;64.35;100880.84;10512453;28;20040;-60
2024/02/19 22:53:06;;;;;;;4.43;1.63;;;;;;;8.19;64.60;100877.56;10498017;28;20449;-59
2024/02/19 22:58:09;;;;;;;5.95;2.05;;;;;;;8.22;64.31;100876.63;10521390;28;20526;-59
2024/02/19 23:03:11;;;;;;;6.82;2.28;;;;;;;8.19;64.14;100882.78;10501993;28;20188;-60
2024/02/19 23:08:13;;;;;;;5.88;1.83;;;;;;;8.15;63.79;100877.72;10521890;28;20055;-59
2024/02/19 23:13:15;;;;;;;7.10;2.50;;;;;;;8.16;63.85;100880.25;10520857;28;20060;-60
2024/02/19 23:18:17;;;;;;;6.20;2.63;;;;;;;8.18;63.76;100888.03;10515476;28;20056;-60
2024/02/19 23:23:19;;;;;;;8.93;1.90;;;;;;;8.23;63.30;100888.72;10521759;28;20051;-60
2024/02/19 23:28:21;;;;;;;5.82;1.85;;;;;;;8.23;63.27;100889.56;10520914;28;20503;-60
2024/02/19 23:33:24;;;;;;;6.75;2.58;;;;;;;8.28;63.44;100898.06;10521606;28;20150;-59
2024/02/19 23:38:26;;;;;;;4.95;1.73;;;;;;;8.38;63.18;100903.84;10513342;28;20043;-60
2024/02/19 23:43:28;;;;;;;6.10;2.50;;;;;;;8.35;62.94;100909.13;10519657;28;20075;-60
2024/02/19 23:48:30;;;;;;;6.35;2.30;;;;;;;8.25;62.93;100908.63;10517632;28;20442;-59